Time;durP1;ratioP1;P1;durP2;ratioP2;P2;SDS_P1;SDS_P2;PMS_P1;PMS_P2;Temp;Humidity;BMP_temperature;BMP_pressure;BME280_temperature;BME280_humidity;BME280_pressure;Samples;Min_cycle;Max_cycle;Signal;HPM_P1;HPM_P2
2021/09/21 00:01:05;;;;;;;4.43;4.22;;;;;;;11.55;72.17;102038.53;4324635;32;20082;-80
2021/09/21 00:03:31;;;;;;;6.65;6.35;;;;;;;11.33;72.19;102008.63;4341355;32;20082;-79
2021/09/21 00:05:57;;;;;;;4.30;4.10;;;;;;;11.62;73.24;102041.78;4336173;32;21075;-79
2021/09/21 00:08:22;;;;;;;5.90;5.60;;;;;;;11.22;73.12;101974.81;4333489;32;20135;-81
2021/09/21 00:10:48;;;;;;;4.50;4.30;;;;;;;12.08;72.56;102113.00;4354718;32;20066;-80
2021/09/21 00:13:13;;;;;;;4.20;4.00;;;;;;;12.10;71.93;102112.00;4342073;32;20064;-80
2021/09/21 00:15:38;;;;;;;4.90;4.62;;;;;;;11.72;71.80;102044.97;4329116;32;21258;-78
2021/09/21 00:18:04;;;;;;;4.35;4.15;;;;;;;11.37;71.97;101991.84;4340703;32;20848;-79
2021/09/21 00:20:29;;;;;;;5.32;5.12;;;;;;;11.45;72.08;102005.59;4344589;32;20058;-81
2021/09/21 00:22:54;;;;;;;4.37;4.18;;;;;;;12.14;72.53;102125.94;4335821;32;20089;-80
2021/09/21 00:25:20;;;;;;;5.10;4.90;;;;;;;11.97;72.04;102098.44;4340117;32;20067;-80
2021/09/21 00:27:45;;;;;;;4.35;4.15;;;;;;;12.09;71.64;102125.25;4341756;32;20085;-79
2021/09/21 00:30:12;;;;;;;4.50;4.30;;;;;;;11.23;72.10;102002.84;4338097;32;20156;-78
2021/09/21 00:32:38;;;;;;;4.90;4.70;;;;;;;11.14;72.24;101988.22;4357308;32;20074;-79
2021/09/21 00:35:03;;;;;;;6.05;4.30;;;;;;;11.96;72.51;102130.91;4356942;32;20061;-79
2021/09/21 00:37:29;;;;;;;5.50;5.30;;;;;;;12.08;73.55;102150.69;4350145;32;20706;-79
2021/09/21 00:39:54;;;;;;;4.50;4.30;;;;;;;12.04;73.62;102153.50;4417709;32;20082;-78
2021/09/21 00:42:26;;;;;;;4.62;4.43;;;;;;;11.89;73.63;102132.06;4341928;32;20093;-77
2021/09/21 00:45:00;;;;;;;4.50;4.30;;;;;;;10.76;73.75;101942.22;4345040;32;20067;-79
2021/09/21 00:47:25;;;;;;;5.10;4.90;;;;;;;11.38;73.28;102054.00;4338241;32;20354;-79
2021/09/21 00:49:51;;;;;;;4.60;4.40;;;;;;;11.77;73.44;102132.47;4338951;32;20070;-78
2021/09/21 00:52:16;;;;;;;5.00;4.80;;;;;;;11.87;73.63;102156.69;4418572;32;20068;-76
2021/09/21 00:54:41;;;;;;;4.55;4.32;;;;;;;11.88;73.90;102155.75;4414468;32;20108;-78
2021/09/21 00:57:07;;;;;;;4.32;4.12;;;;;;;11.81;73.35;102143.72;4399915;32;20134;-79
2021/09/21 00:59:32;;;;;;;4.50;4.30;;;;;;;11.64;72.71;102118.84;4340189;32;20088;-79
2021/09/21 01:01:58;;;;;;;4.62;4.43;;;;;;;12.01;72.05;102177.25;4332012;32;20073;-77
2021/09/21 01:04:23;;;;;;;5.32;5.12;;;;;;;11.86;71.87;102154.94;4343801;32;20153;-79
2021/09/21 01:06:48;;;;;;;4.62;4.30;;;;;;;10.94;71.60;102004.69;4391674;32;20101;-79
2021/09/21 01:09:21;;;;;;;4.50;4.30;;;;;;;11.92;71.96;102160.03;4331878;32;20553;-76
2021/09/21 01:11:47;;;;;;;4.70;4.50;;;;;;;11.51;72.00;102086.00;4404602;32;20088;-78
2021/09/21 01:14:13;;;;;;;4.47;4.28;;;;;;;11.98;71.69;102179.09;4348773;32;20073;-79
2021/09/21 01:16:38;;;;;;;5.00;4.68;;;;;;;11.23;71.60;102046.66;4344452;32;20086;-78
2021/09/21 01:19:04;;;;;;;4.70;4.50;;;;;;;12.00;71.46;102172.94;4329338;32;20074;-78
2021/09/21 01:21:29;;;;;;;5.35;5.15;;;;;;;11.84;71.51;102147.09;4336997;32;20074;-79
2021/09/21 01:23:55;;;;;;;4.50;4.30;;;;;;;12.00;71.66;102184.31;4345944;32;20398;-78
2021/09/21 01:26:21;;;;;;;5.57;5.28;;;;;;;11.97;71.66;102174.75;4323313;32;20081;-80
2021/09/21 01:28:47;;;;;;;4.57;4.37;;;;;;;12.00;72.16;102175.56;4359073;32;20148;-78
2021/09/21 01:31:12;;;;;;;4.60;4.40;;;;;;;11.97;72.08;102172.13;4353732;32;20110;-77
2021/09/21 01:33:37;;;;;;;4.40;4.20;;;;;;;11.39;72.32;102082.03;4321597;32;20078;-79
2021/09/21 01:36:03;;;;;;;6.05;4.32;;;;;;;11.90;73.20;102161.84;4387312;32;20879;-79
2021/09/21 01:38:28;;;;;;;5.05;4.85;;;;;;;11.69;73.26;102126.59;4327032;32;20070;-78
2021/09/21 01:40:54;;;;;;;4.20;4.00;;;;;;;11.78;73.31;102156.06;4412311;32;20111;-78
2021/09/21 01:43:19;;;;;;;4.10;3.90;;;;;;;11.87;72.98;102177.72;4345942;32;20074;-79
2021/09/21 01:45:45;;;;;;;4.30;4.10;;;;;;;11.88;72.57;102175.03;4337248;32;20775;-81
2021/09/21 01:48:10;;;;;;;4.35;4.15;;;;;;;11.54;72.74;102123.56;4338231;32;20087;-79
2021/09/21 01:50:44;;;;;;;4.70;4.50;;;;;;;10.93;73.52;102029.22;4340441;32;20274;-79
2021/09/21 01:58:46;;;;;;;4.40;4.20;;;;;;;10.45;74.16;101963.38;4324264;32;20093;-79
2021/09/21 02:01:13;;;;;;;4.30;4.10;;;;;;;11.74;74.21;102190.41;4321506;32;20124;-80
2021/09/21 02:03:39;;;;;;;4.60;4.40;;;;;;;11.20;73.74;102083.53;4322605;32;20168;-81
2021/09/21 02:06:05;;;;;;;4.43;4.22;;;;;;;11.76;73.65;102183.31;4320399;32;20090;-77
2021/09/21 02:08:31;;;;;;;5.43;5.15;;;;;;;11.76;73.47;102191.22;4331451;32;20213;-79
2021/09/21 02:10:57;;;;;;;4.80;4.60;;;;;;;11.75;73.80;102181.63;4321807;32;20479;-78
2021/09/21 02:13:22;;;;;;;4.65;4.45;;;;;;;11.62;73.81;102159.25;4336656;32;20051;-80
2021/09/21 02:15:47;;;;;;;4.30;4.10;;;;;;;11.62;74.79;102169.78;4330601;32;20770;-78
2021/09/21 02:18:13;;;;;;;4.55;4.35;;;;;;;11.73;74.32;102199.22;4334001;32;20070;-79
2021/09/21 02:20:38;;;;;;;4.40;4.20;;;;;;;11.48;74.11;102151.81;4334458;32;20089;-78
2021/09/21 02:23:04;;;;;;;4.35;4.15;;;;;;;11.74;74.85;102195.66;4329131;32;20580;-78
2021/09/21 02:25:29;;;;;;;5.28;5.07;;;;;;;11.11;74.15;102087.31;4336810;32;20516;-80
2021/09/21 02:27:54;;;;;;;4.50;4.30;;;;;;;11.71;74.30;102196.63;4331508;32;20075;-80
2021/09/21 02:30:20;;;;;;;5.25;5.05;;;;;;;11.69;74.56;102192.34;4325821;32;20631;-78
2021/09/21 02:32:46;;;;;;;4.37;4.18;;;;;;;11.44;75.09;102155.47;4334344;32;20066;-80
2021/09/21 02:35:11;;;;;;;4.40;4.20;;;;;;;11.31;74.63;102147.12;4346856;32;20109;-78
2021/09/21 02:37:36;;;;;;;4.40;4.20;;;;;;;11.50;75.25;102171.88;4349267;32;20648;-79
2021/09/21 02:40:03;;;;;;;4.12;3.92;;;;;;;11.24;74.49;102158.72;4351783;32;20144;-80
2021/09/21 02:42:28;;;;;;;5.60;5.30;;;;;;;11.40;74.43;102153.84;4351633;32;20208;-80
2021/09/21 02:44:54;;;;;;;4.30;4.10;;;;;;;11.55;73.80;102180.50;4347089;32;20539;-80
2021/09/21 02:47:19;;;;;;;5.93;5.62;;;;;;;11.28;73.89;102131.44;4330067;32;20059;-81
2021/09/21 02:49:44;;;;;;;4.53;4.32;;;;;;;11.39;74.26;102155.63;4365623;32;20066;-80
2021/09/21 02:52:10;;;;;;;4.60;4.40;;;;;;;11.53;74.69;102186.72;4321084;32;20053;-80
2021/09/21 02:54:35;;;;;;;4.50;4.30;;;;;;;10.82;74.66;102070.69;4321403;32;20066;-79
2021/09/21 02:57:00;;;;;;;4.40;4.20;;;;;;;11.29;74.84;102148.94;4332304;32;20078;-82
2021/09/21 02:59:26;;;;;;;6.05;5.75;;;;;;;11.47;74.79;102192.19;4336449;32;20078;-79
2021/09/21 03:01:52;;;;;;;4.43;4.22;;;;;;;10.77;73.51;102070.00;4318109;32;20086;-79
2021/09/21 03:04:42;;;;;;;5.32;5.03;;;;;;;11.45;73.67;102189.59;4342815;32;20089;-81
2021/09/21 03:07:06;;;;;;;4.40;4.18;;;;;;;11.35;73.88;102167.16;4338747;32;20097;-80
2021/09/21 03:17:29;;;;;;;5.37;5.18;;;;;;;11.05;74.97;102133.03;4334588;32;20141;-79
2021/09/21 03:19:58;;;;;;;4.20;4.00;;;;;;;11.46;74.28;102204.44;4325377;32;20093;-80
2021/09/21 03:22:23;;;;;;;4.18;3.97;;;;;;;11.46;74.76;102201.81;4328729;32;20520;-78
2021/09/21 03:24:49;;;;;;;4.40;4.20;;;;;;;10.52;74.18;102047.13;4346858;32;20133;-79
2021/09/21 03:27:15;;;;;;;4.30;4.10;;;;;;;10.32;74.93;102026.72;4381088;32;20097;-78
2021/09/21 03:29:41;;;;;;;4.50;4.28;;;;;;;11.21;75.17;102174.62;4351866;32;20466;-79
2021/09/21 03:32:16;;;;;;;4.72;4.53;;;;;;;11.29;75.44;102199.72;4358637;32;20094;-76
2021/09/21 03:34:41;;;;;;;4.82;4.62;;;;;;;10.55;75.74;102098.66;4327480;32;20067;-80
2021/09/21 03:37:10;;;;;;;4.30;4.10;;;;;;;11.09;76.22;102200.34;4363409;32;20079;-80
2021/09/21 03:39:35;;;;;;;4.68;4.47;;;;;;;10.57;76.03;102131.00;4337916;32;20144;-79
2021/09/21 03:42:01;;;;;;;4.20;4.00;;;;;;;10.28;76.45;102089.78;4342984;32;20070;-79
2021/09/21 03:44:27;;;;;;;5.47;5.25;;;;;;;10.26;76.71;102097.69;4324232;32;20075;-78
2021/09/21 03:46:53;;;;;;;4.80;4.60;;;;;;;10.28;76.20;102098.50;4333734;32;20075;-79
2021/09/21 03:49:18;;;;;;;4.75;4.55;;;;;;;10.68;76.61;102175.28;4342511;32;20067;-80
2021/09/21 03:51:44;;;;;;;4.10;3.90;;;;;;;10.41;76.78;102151.56;4333820;32;20059;-78
2021/09/21 03:54:09;;;;;;;4.40;4.20;;;;;;;9.16;77.58;101923.34;4347626;32;20189;-79
2021/09/21 03:56:38;;;;;;;4.60;4.40;;;;;;;10.98;77.51;102237.47;4400109;32;20070;-80
2021/09/21 03:59:04;;;;;;;4.60;4.40;;;;;;;9.97;77.68;102072.28;4337635;32;20174;-79
2021/09/21 04:01:29;;;;;;;5.68;5.43;;;;;;;8.51;77.45;101830.78;4364204;32;20185;-79
2021/09/21 04:03:55;;;;;;;4.53;4.32;;;;;;;11.00;77.86;102245.25;4391107;32;20071;-79
2021/09/21 04:06:20;;;;;;;6.07;5.78;;;;;;;10.35;77.12;102152.59;4410324;32;20455;-80
2021/09/21 04:08:46;;;;;;;4.35;4.15;;;;;;;9.44;76.54;102012.56;4366875;32;20075;-77
2021/09/21 04:11:11;;;;;;;4.70;4.50;;;;;;;10.88;76.73;102248.25;4400494;32;20079;-78
2021/09/21 04:13:36;;;;;;;4.30;4.10;;;;;;;10.50;76.83;102174.06;4342627;32;20725;-78
2021/09/21 04:16:02;;;;;;;4.10;3.90;;;;;;;10.75;77.07;102222.34;4338658;32;20066;-80
2021/09/21 04:18:27;;;;;;;5.60;5.37;;;;;;;11.04;77.05;102283.69;4344148;32;20066;-79
2021/09/21 04:20:53;;;;;;;4.62;4.43;;;;;;;10.73;76.87;102246.94;4333878;32;20594;-78
2021/09/21 04:23:18;;;;;;;5.10;4.90;;;;;;;10.78;77.32;102245.91;4333888;32;20094;-78
2021/09/21 04:25:43;;;;;;;4.40;4.20;;;;;;;11.06;77.52;102294.16;4337326;32;20079;-79
2021/09/21 04:28:09;;;;;;;4.50;4.30;;;;;;;10.19;76.85;102146.00;4329084;32;20067;-79
2021/09/21 04:30:34;;;;;;;4.85;4.55;;;;;;;11.05;77.04;102289.81;4342972;32;20867;-79
2021/09/21 04:33:00;;;;;;;4.50;4.30;;;;;;;9.96;77.18;102117.78;4331575;32;20575;-79
2021/09/21 04:35:25;;;;;;;5.55;5.35;;;;;;;10.83;77.34;102264.16;4397470;32;20465;-78
2021/09/21 04:37:50;;;;;;;4.30;4.10;;;;;;;9.53;76.51;102046.38;4347912;32;20355;-78
2021/09/21 04:40:16;;;;;;;4.37;4.18;;;;;;;10.40;76.89;102196.22;4360561;32;20077;-77
2021/09/21 04:42:41;;;;;;;4.28;4.07;;;;;;;10.04;76.50;102204.13;4346580;32;20471;-78
2021/09/21 04:45:07;;;;;;;4.90;4.70;;;;;;;11.04;76.51;102307.31;4380249;32;20082;-79
2021/09/21 04:47:32;;;;;;;4.35;4.15;;;;;;;10.81;77.00;102272.97;4344515;32;20067;-80
2021/09/21 04:49:58;;;;;;;4.25;4.05;;;;;;;10.34;76.39;102205.09;4322482;32;20070;-80
2021/09/21 04:52:23;;;;;;;5.35;5.15;;;;;;;11.03;77.25;102329.25;4344262;32;20067;-78
2021/09/21 04:54:48;;;;;;;4.30;4.10;;;;;;;10.61;76.22;102245.50;4325614;32;20090;-78
2021/09/21 04:57:14;;;;;;;4.40;4.20;;;;;;;9.80;76.09;102122.56;4344981;32;20611;-77
2021/09/21 04:59:39;;;;;;;4.50;4.30;;;;;;;11.11;76.69;102323.78;4337687;32;20085;-77
2021/09/21 05:02:05;;;;;;;4.32;4.12;;;;;;;10.92;76.56;102299.78;4339225;32;20452;-77
2021/09/21 05:04:30;;;;;;;4.15;3.95;;;;;;;11.04;76.82;102357.25;4324457;32;20086;-79
2021/09/21 05:06:58;;;;;;;4.25;4.05;;;;;;;10.87;76.58;102312.22;4399340;32;20078;-77
2021/09/21 05:09:24;;;;;;;4.85;4.65;;;;;;;10.98;76.87;102337.28;4334116;32;20063;-77
2021/09/21 05:11:49;;;;;;;4.25;4.05;;;;;;;10.65;76.95;102301.41;4336815;32;20078;-78
2021/09/21 05:14:14;;;;;;;4.32;4.12;;;;;;;10.82;76.45;102325.44;4342987;32;20571;-77
2021/09/21 05:16:40;;;;;;;4.25;4.05;;;;;;;10.78;76.05;102322.06;4350630;32;20086;-78
2021/09/21 05:19:07;;;;;;;4.28;4.07;;;;;;;9.80;76.02;102159.25;4341770;32;20075;-77
2021/09/21 05:21:33;;;;;;;5.28;5.03;;;;;;;10.54;76.61;102285.94;4345585;32;20067;-79
2021/09/21 05:23:58;;;;;;;4.70;4.50;;;;;;;10.04;76.92;102207.59;4391353;32;20081;-78
2021/09/21 05:26:24;;;;;;;5.87;5.57;;;;;;;10.95;77.18;102352.25;4317815;32;20447;-78
2021/09/21 05:28:49;;;;;;;4.40;4.20;;;;;;;8.95;76.55;102040.81;4333588;32;20082;-77
2021/09/21 05:31:15;;;;;;;4.40;4.20;;;;;;;10.74;76.73;102330.94;4334045;32;20081;-77
2021/09/21 05:33:40;;;;;;;4.12;3.92;;;;;;;9.81;77.28;102179.34;4338830;32;20082;-79
2021/09/21 05:36:05;;;;;;;4.80;4.50;;;;;;;10.76;76.04;102341.38;4320496;32;20603;-77
2021/09/21 05:38:31;;;;;;;5.53;5.32;;;;;;;10.80;76.70;102348.25;4335245;32;20430;-77
2021/09/21 05:40:56;;;;;;;4.37;4.18;;;;;;;10.97;76.74;102380.19;4386713;32;20089;-78
2021/09/21 05:43:22;;;;;;;5.90;5.57;;;;;;;10.94;78.58;102382.94;4354301;32;20614;-79
2021/09/21 05:45:47;;;;;;;4.45;4.25;;;;;;;10.79;77.95;102367.56;4337248;32;20063;-78
2021/09/21 05:48:12;;;;;;;4.05;3.85;;;;;;;10.82;78.48;102359.59;4328150;32;20646;-79
2021/09/21 05:50:38;;;;;;;4.95;4.75;;;;;;;10.70;77.92;102337.12;4335408;32;20429;-77
2021/09/21 05:53:03;;;;;;;4.30;4.10;;;;;;;10.86;78.45;102384.88;4324209;32;20081;-79
2021/09/21 05:55:29;;;;;;;6.25;5.95;;;;;;;10.56;78.39;102339.25;4342451;32;20664;-79
2021/09/21 05:57:55;;;;;;;4.57;4.28;;;;;;;10.49;78.66;102325.44;4323720;32;20094;-78
2021/09/21 06:00:20;;;;;;;6.00;5.70;;;;;;;10.13;78.11;102272.97;4393925;32;20058;-79
2021/09/21 06:02:45;;;;;;;4.40;4.20;;;;;;;10.54;78.81;102341.06;4332973;32;20145;-78
2021/09/21 06:05:11;;;;;;;4.43;4.22;;;;;;;10.64;78.72;102389.81;4324626;32;20437;-80
2021/09/21 06:07:43;;;;;;;6.00;5.55;;;;;;;10.69;78.78;102382.69;4334229;32;20152;-79
2021/09/21 06:10:09;;;;;;;4.30;4.10;;;;;;;9.56;78.40;102193.06;4370777;32;20085;-79
2021/09/21 06:12:35;;;;;;;5.03;4.82;;;;;;;10.65;78.05;102374.94;4328630;32;20217;-80
2021/09/21 06:15:00;;;;;;;4.60;4.40;;;;;;;10.87;77.68;102401.50;4339322;32;20062;-80
2021/09/21 06:17:25;;;;;;;5.75;5.50;;;;;;;10.51;77.30;102336.75;4360149;27;20507;-79
2021/09/21 06:19:51;;;;;;;4.50;4.30;;;;;;;10.27;77.45;102269.12;4376640;32;20104;-78
2021/09/21 06:22:16;;;;;;;4.32;4.12;;;;;;;10.93;78.07;102385.59;4426073;32;20108;-81
2021/09/21 06:24:42;;;;;;;4.30;4.10;;;;;;;11.20;77.62;102409.37;4424088;32;20711;-77
2021/09/21 06:27:07;;;;;;;4.50;4.30;;;;;;;11.15;77.10;102391.97;4422726;32;20116;-79
2021/09/21 06:29:32;;;;;;;5.43;5.18;;;;;;;11.21;76.76;102393.56;4348669;32;20475;-78
2021/09/21 06:31:58;;;;;;;4.30;4.10;;;;;;;11.30;76.01;102390.69;4332099;32;20078;-78
2021/09/21 06:34:24;;;;;;;6.10;5.80;;;;;;;11.50;75.83;102411.16;4349311;32;20104;-78
2021/09/21 06:36:53;;;;;;;4.28;4.07;;;;;;;11.62;75.01;102416.97;4340947;32;20085;-77
2021/09/21 06:39:19;;;;;;;4.30;4.10;;;;;;;11.42;74.74;102357.94;4348335;32;20133;-79
2021/09/21 06:41:44;;;;;;;4.40;4.20;;;;;;;10.49;73.97;102202.06;4397486;32;20371;-81
2021/09/21 06:44:09;;;;;;;4.68;4.47;;;;;;;12.00;72.92;102410.59;4350528;32;20073;-79
2021/09/21 06:46:35;;;;;;;5.22;5.03;;;;;;;12.12;70.63;102406.72;4367038;32;20151;-78
2021/09/21 06:49:00;;;;;;;4.40;4.20;;;;;;;12.21;66.32;102418.72;4324954;32;20070;-79
2021/09/21 06:51:25;;;;;;;6.12;5.82;;;;;;;12.21;65.83;102397.66;4342181;32;20066;-79
2021/09/21 06:53:51;;;;;;;4.60;4.40;;;;;;;12.41;64.08;102410.19;4354514;32;20637;-77
2021/09/21 06:56:16;;;;;;;4.60;4.40;;;;;;;12.26;65.44;102387.88;4354541;32;20074;-79
2021/09/21 06:58:42;;;;;;;4.72;4.53;;;;;;;12.52;65.20;102439.69;4345558;32;20066;-80
2021/09/21 07:01:08;;;;;;;4.35;4.15;;;;;;;12.46;65.68;102434.59;4352599;32;20477;-80
2021/09/21 07:03:34;;;;;;;5.05;4.85;;;;;;;12.40;63.92;102437.44;4326135;32;20622;-81
2021/09/21 07:05:59;;;;;;;4.10;3.90;;;;;;;11.40;64.13;102274.75;4336181;32;20086;-77
2021/09/21 07:08:25;;;;;;;5.53;5.25;;;;;;;12.07;64.76;102371.81;4335860;32;20082;-77
2021/09/21 07:10:50;;;;;;;4.90;4.70;;;;;;;12.51;65.86;102430.91;4336945;32;20081;-80
2021/09/21 07:13:16;;;;;;;4.55;4.35;;;;;;;12.27;65.89;102361.50;4347587;32;20079;-79
2021/09/21 07:15:41;;;;;;;4.35;4.15;;;;;;;12.61;64.94;102409.53;4344456;32;20168;-78
2021/09/21 07:18:07;;;;;;;4.22;4.03;;;;;;;12.36;65.23;102355.91;4320593;32;20120;-78
2021/09/21 07:20:32;;;;;;;4.82;4.55;;;;;;;12.12;64.88;102301.44;4323143;32;20836;-82
2021/09/21 07:22:57;;;;;;;4.93;4.65;;;;;;;13.14;64.35;102475.38;4334192;32;20090;-79
2021/09/21 07:25:23;;;;;;;5.87;5.57;;;;;;;13.29;63.89;102472.25;4335532;32;20777;-78
2021/09/21 07:27:49;;;;;;;4.60;4.40;;;;;;;13.36;62.90;102473.72;4364130;32;20110;-79
2021/09/21 07:30:15;;;;;;;5.00;4.80;;;;;;;13.50;61.86;102475.03;4407990;32;20089;-78
2021/09/21 07:32:40;;;;;;;4.90;4.60;;;;;;;13.48;62.00;102456.63;4413870;32;20137;-79
2021/09/21 07:35:06;;;;;;;4.47;4.28;;;;;;;12.93;61.29;102364.53;4410987;32;20069;-80
2021/09/21 07:37:31;;;;;;;6.20;5.90;;;;;;;13.12;61.95;102424.47;4397146;32;20126;-78
2021/09/21 07:39:56;;;;;;;4.87;4.68;;;;;;;12.55;60.30;102302.66;4337761;32;20616;-78
2021/09/21 07:42:22;;;;;;;6.05;5.65;;;;;;;12.90;59.59;102351.44;4338743;32;20089;-78
2021/09/21 07:44:47;;;;;;;4.47;4.28;;;;;;;13.85;59.58;102484.31;4323468;32;20287;-80
2021/09/21 07:47:13;;;;;;;4.80;4.60;;;;;;;14.02;58.50;102483.66;4332334;32;20525;-78
2021/09/21 07:49:39;;;;;;;4.50;4.30;;;;;;;11.63;59.81;102101.37;4346435;32;20500;-79
2021/09/21 07:52:04;;;;;;;4.70;4.50;;;;;;;14.22;58.78;102458.25;4351908;32;20920;-78
2021/09/21 07:54:32;;;;;;;5.97;5.68;;;;;;;14.35;58.01;102447.16;4353204;32;20078;-78
2021/09/21 07:56:57;;;;;;;5.57;5.28;;;;;;;14.73;58.11;102494.97;4378360;32;20096;-78
2021/09/21 07:59:23;;;;;;;6.05;5.75;;;;;;;14.21;56.49;102420.41;4331402;32;20667;-79
2021/09/21 08:01:48;;;;;;;4.68;4.47;;;;;;;14.53;56.97;102481.66;4351323;32;20097;-79
2021/09/21 08:04:14;;;;;;;4.80;4.60;;;;;;;14.84;56.71;102506.88;4342893;32;20089;-78
2021/09/21 08:06:39;;;;;;;4.82;4.62;;;;;;;14.97;55.82;102492.22;4330545;32;20078;-79
2021/09/21 08:09:04;;;;;;;4.97;4.78;;;;;;;15.10;55.53;102492.56;4331340;32;20147;-77
2021/09/21 08:11:30;;;;;;;6.22;5.93;;;;;;;15.10;56.06;102493.44;4343658;32;20572;-77
2021/09/21 08:13:55;;;;;;;4.80;4.60;;;;;;;15.16;55.70;102469.38;4386390;32;20144;-79
2021/09/21 08:16:21;;;;;;;9.45;6.12;;;;;;;15.43;56.16;102499.97;4330181;32;20301;-77
2021/09/21 08:18:46;;;;;;;5.40;5.10;;;;;;;15.38;52.68;102494.91;4403250;32;20180;-78
2021/09/21 08:21:11;;;;;;;5.07;4.80;;;;;;;15.39;52.81;102480.72;4413985;32;20057;-81
2021/09/21 08:23:37;;;;;;;4.80;4.60;;;;;;;14.52;49.41;102353.16;4398991;32;20072;-82
2021/09/21 08:26:02;;;;;;;4.97;4.78;;;;;;;15.11;50.59;102460.78;4402466;32;20575;-79
2021/09/21 08:28:27;;;;;;;6.22;5.93;;;;;;;15.39;51.92;102496.59;4399659;32;20057;-79
2021/09/21 08:30:53;;;;;;;4.90;4.70;;;;;;;15.57;50.50;102500.22;4404424;32;20112;-79
2021/09/21 08:33:18;;;;;;;5.57;5.28;;;;;;;14.11;47.52;102256.25;4391606;32;20099;-79
2021/09/21 08:35:44;;;;;;;5.25;4.95;;;;;;;14.31;47.31;102295.03;4404846;32;20077;-78
2021/09/21 08:38:09;;;;;;;4.80;4.60;;;;;;;15.62;47.15;102478.88;4411077;32;20073;-80
2021/09/21 08:40:34;;;;;;;5.12;4.90;;;;;;;15.42;46.87;102434.78;4407205;32;20681;-79
2021/09/21 08:43:00;;;;;;;4.95;4.75;;;;;;;15.59;47.83;102486.91;4423877;32;20128;-78
2021/09/21 08:45:26;;;;;;;5.55;5.25;;;;;;;15.05;45.67;102363.19;4396904;32;20570;-78
2021/09/21 08:47:51;;;;;;;4.90;4.70;;;;;;;15.78;43.81;102463.19;4411031;32;20110;-80
2021/09/21 08:50:17;;;;;;;4.75;4.55;;;;;;;15.70;46.09;102480.22;4415402;32;20554;-80
2021/09/21 08:52:42;;;;;;;4.85;4.65;;;;;;;15.95;45.86;102498.50;4407611;32;20077;-79
2021/09/21 08:55:12;;;;;;;4.90;4.70;;;;;;;15.60;45.06;102431.28;4413914;32;20083;-80
2021/09/21 08:57:38;;;;;;;4.80;4.60;;;;;;;15.50;46.58;102390.31;4410732;32;20275;-79
2021/09/21 09:00:04;;;;;;;4.90;4.70;;;;;;;16.23;45.77;102472.53;4401581;32;20079;-79
2021/09/21 09:02:30;;;;;;;4.78;4.57;;;;;;;16.50;44.40;102500.34;4408307;32;20157;-79
2021/09/21 09:05:04;;;;;;;5.00;4.80;;;;;;;16.63;44.42;102499.75;4412496;32;20067;-79
2021/09/21 09:07:48;;;;;;;6.03;5.72;;;;;;;16.64;44.74;102528.84;4411229;32;20060;-79
2021/09/21 09:10:13;;;;;;;5.20;5.00;;;;;;;16.85;44.41;102494.28;4424680;32;20606;-80
2021/09/21 09:12:38;;;;;;;4.93;4.72;;;;;;;16.07;43.51;102382.34;4408771;32;20087;-79
2021/09/21 09:15:17;;;;;;;5.57;5.28;;;;;;;16.26;44.38;102371.72;4398929;32;20081;-77
2021/09/21 09:18:12;;;;;;;5.65;5.35;;;;;;;17.17;43.87;102471.44;4378778;32;20203;-79
2021/09/21 09:20:39;;;;;;;5.40;5.10;;;;;;;16.95;42.86;102461.06;4363428;32;20071;-79
2021/09/21 09:23:08;;;;;;;4.90;4.70;;;;;;;17.12;44.10;102436.34;4337424;32;20469;-80
2021/09/21 09:25:43;;;;;;;6.05;5.75;;;;;;;17.02;41.57;102403.25;4331288;32;20122;-81
2021/09/21 09:28:19;;;;;;;5.45;5.25;;;;;;;16.63;42.56;102362.75;4346459;32;20063;-79
2021/09/21 09:30:45;;;;;;;5.40;5.10;;;;;;;14.72;42.81;102004.34;4348318;32;20529;-80
2021/09/21 09:33:11;;;;;;;5.30;5.00;;;;;;;17.97;42.56;102516.81;4345425;32;20177;-81
2021/09/21 09:35:37;;;;;;;5.00;4.80;;;;;;;18.23;42.44;102510.91;4328630;32;20080;-81
2021/09/21 09:38:07;;;;;;;5.05;4.85;;;;;;;18.28;40.43;102508.00;4350729;32;20078;-77
2021/09/21 09:40:45;;;;;;;6.47;6.18;;;;;;;18.62;42.28;102514.94;4345812;32;20086;-78
2021/09/21 09:43:11;;;;;;;5.40;5.10;;;;;;;18.50;42.87;102444.72;4341896;32;20130;-79
2021/09/21 09:45:41;;;;;;;5.40;5.10;;;;;;;18.38;41.69;102404.66;4347469;32;21045;-79
2021/09/21 09:48:07;;;;;;;5.57;5.30;;;;;;;19.09;40.04;102514.00;4335880;32;20181;-80
2021/09/21 09:50:42;;;;;;;6.22;5.93;;;;;;;18.72;40.82;102433.69;4327852;32;20181;-80
2021/09/21 09:53:23;;;;;;;5.00;4.80;;;;;;;18.32;40.01;102369.53;4325271;32;20077;-78
2021/09/21 09:55:50;;;;;;;5.00;4.80;;;;;;;18.46;39.61;102506.09;4341820;32;20236;-81
2021/09/21 09:58:16;;;;;;;5.20;5.00;;;;;;;17.12;40.53;102293.09;4337323;32;20136;-81
2021/09/21 10:00:42;;;;;;;5.28;5.00;;;;;;;18.18;40.05;102401.38;4347843;32;20065;-78
2021/09/21 10:03:07;;;;;;;5.18;4.97;;;;;;;18.82;40.26;102475.69;4321689;32;20082;-78
2021/09/21 10:05:34;;;;;;;6.43;6.12;;;;;;;18.78;38.91;102517.53;4327717;32;20073;-79
2021/09/21 10:08:00;;;;;;;5.45;5.18;;;;;;;18.85;39.40;102497.66;4351220;32;20153;-78
2021/09/21 10:10:26;;;;;;;5.10;4.90;;;;;;;18.03;39.01;102389.81;4341194;32;20708;-78
2021/09/21 10:12:51;;;;;;;5.45;5.18;;;;;;;18.78;37.18;102480.31;4352986;32;20070;-78
2021/09/21 10:15:17;;;;;;;5.20;5.00;;;;;;;18.17;35.40;102420.91;4415008;32;20420;-79
2021/09/21 10:17:53;;;;;;;5.10;4.90;;;;;;;18.70;36.99;102502.06;4345777;32;20094;-77
2021/09/21 10:20:23;;;;;;;5.20;5.00;;;;;;;17.57;36.30;102412.72;4407663;32;20143;-78
2021/09/21 10:22:54;;;;;;;5.35;5.15;;;;;;;18.28;36.75;102550.53;4348806;32;20101;-79
2021/09/21 10:25:33;;;;;;;5.10;4.90;;;;;;;18.37;37.35;102530.56;4329510;32;20166;-77
2021/09/21 10:27:59;;;;;;;5.03;4.82;;;;;;;18.01;37.79;102529.84;4408912;32;20525;-77
2021/09/21 10:30:28;;;;;;;6.53;6.22;;;;;;;17.79;36.86;102531.91;4350845;32;20131;-78
2021/09/21 10:32:54;;;;;;;5.00;4.80;;;;;;;17.49;39.14;102414.00;4345341;32;20070;-76
2021/09/21 10:35:21;;;;;;;5.85;5.57;;;;;;;17.67;36.64;102422.75;4332185;32;20139;-78
2021/09/21 10:37:59;;;;;;;5.07;4.87;;;;;;;17.91;37.43;102533.94;4338271;32;20356;-76
2021/09/21 10:40:40;;;;;;;5.00;4.80;;;;;;;17.51;37.36;102467.00;4323970;32;20081;-78
2021/09/21 10:43:28;;;;;;;5.10;4.90;;;;;;;18.34;37.06;102529.78;4358571;32;20492;-76
2021/09/21 10:46:08;;;;;;;5.20;5.00;;;;;;;18.05;37.12;102467.63;4360303;32;20078;-78
2021/09/21 10:48:38;;;;;;;5.55;5.18;;;;;;;18.02;37.82;102462.50;4322205;32;20871;-78
2021/09/21 10:51:03;;;;;;;5.40;5.20;;;;;;;18.67;37.04;102527.97;4346357;32;20285;-77
2021/09/21 10:53:29;;;;;;;5.20;5.00;;;;;;;18.96;36.32;102528.97;4347270;32;20088;-78
2021/09/21 10:56:06;;;;;;;5.00;4.80;;;;;;;17.88;35.16;102326.91;4343901;32;20126;-78
2021/09/21 10:58:31;;;;;;;7.40;6.80;;;;;;;18.88;35.71;102524.09;4345365;32;20686;-78
2021/09/21 11:00:57;;;;;;;5.68;5.37;;;;;;;18.46;36.39;102485.72;4337450;32;20074;-77
2021/09/21 11:03:23;;;;;;;6.40;6.10;;;;;;;15.53;36.59;102003.81;4334630;32;20468;-77
2021/09/21 11:05:49;;;;;;;5.20;5.00;;;;;;;16.71;36.43;102214.75;4331514;32;20078;-77
2021/09/21 11:08:16;;;;;;;5.32;5.07;;;;;;;18.54;37.58;102503.84;4349902;32;20085;-77
2021/09/21 11:10:44;;;;;;;5.18;4.97;;;;;;;18.63;36.48;102518.44;4398685;32;20054;-78
2021/09/21 11:13:14;;;;;;;5.40;5.15;;;;;;;18.42;36.65;102467.34;4333036;32;20316;-78
2021/09/21 11:15:40;;;;;;;5.10;4.80;;;;;;;18.19;37.94;102427.00;4335860;32;20067;-78
2021/09/21 11:18:10;;;;;;;5.00;4.80;;;;;;;19.19;36.47;102510.78;4340891;32;20559;-78
2021/09/21 11:20:49;;;;;;;6.10;5.80;;;;;;;18.54;34.79;102385.09;4320836;32;20506;-78
2021/09/21 11:23:16;;;;;;;5.65;5.10;;;;;;;18.66;35.82;102406.56;4354475;32;20115;-79
2021/09/21 11:25:42;;;;;;;5.12;4.93;;;;;;;19.57;35.14;102511.13;4363496;32;20493;-78
2021/09/21 11:28:07;;;;;;;5.32;5.12;;;;;;;19.31;35.66;102515.38;4354435;32;20070;-78
2021/09/21 11:30:33;;;;;;;6.62;6.32;;;;;;;18.69;36.58;102502.13;4383456;32;20526;-79
2021/09/21 11:32:58;;;;;;;5.30;5.10;;;;;;;18.25;37.14;102394.75;4358546;32;20082;-78
2021/09/21 11:35:23;;;;;;;6.10;5.80;;;;;;;19.40;35.19;102506.81;4355827;32;20477;-76
2021/09/21 11:37:51;;;;;;;5.12;4.93;;;;;;;19.88;35.74;102507.44;4365172;32;20099;-77